Time;durP1;ratioP1;P1;durP2;ratioP2;P2;SDS_P1;SDS_P2;PMS_P1;PMS_P2;Temp;Humidity;BMP_temperature;BMP_pressure;BME280_temperature;BME280_humidity;BME280_pressure;Samples;Min_cycle;Max_cycle;Signal;HPM_P1;HPM_P2
2023/07/28 00:02:16;;;;;;;30.45;8.38;;;;;;;;;;4977348;28;20497;-71
2023/07/28 00:04:41;;;;;;;26.55;7.93;;;;;;;;;;4976526;28;20045;-71
2023/07/28 00:07:08;;;;;;;27.02;7.88;;;;;;;;;;4978077;28;20042;-71
2023/07/28 00:09:33;;;;;;;29.60;8.25;;;;;;;;;;4973633;28;20163;-71
2023/07/28 00:11:59;;;;;;;26.50;8.25;;;;;;;;;;4974328;28;20399;-70
2023/07/28 00:14:26;;;;;;;33.50;8.05;;;;;;;;;;4973921;28;20038;-69
2023/07/28 00:16:56;;;;;;;32.70;7.82;;;;;;;;;;4972991;28;20375;-69
2023/07/28 00:19:21;;;;;;;35.47;7.85;;;;;;;;;;4972539;28;20035;-69
2023/07/28 00:21:50;;;;;;;28.67;7.43;;;;;;;;;;4972815;28;20038;-68
2023/07/28 00:24:17;;;;;;;23.80;7.68;;;;;;;;;;4972198;28;20388;-68
2023/07/28 00:26:42;;;;;;;33.05;7.57;;;;;;;;;;4973666;28;20043;-68
2023/07/28 00:29:07;;;;;;;28.30;7.75;;;;;;;;;;4973265;28;20034;-69
2023/07/28 00:31:33;;;;;;;29.27;7.88;;;;;;;;;;4974875;28;20043;-68
2023/07/28 00:33:59;;;;;;;25.85;7.70;;;;;;;;;;4973523;28;20051;-69
2023/07/28 00:36:25;;;;;;;35.70;7.15;;;;;;;;;;4973813;28;20051;-69
2023/07/28 00:38:50;;;;;;;27.20;7.03;;;;;;;;;;4973832;28;20035;-71
2023/07/28 00:41:15;;;;;;;30.15;6.85;;;;;;;;;;4973963;28;20074;-68
2023/07/28 00:43:41;;;;;;;34.20;7.40;;;;;;;;;;4973473;28;20027;-69
2023/07/28 00:46:06;;;;;;;37.60;7.55;;;;;;;;;;4973612;28;20045;-68
2023/07/28 00:48:32;;;;;;;28.77;7.00;;;;;;;;;;4972602;28;20069;-71
2023/07/28 00:50:57;;;;;;;31.08;7.75;;;;;;;;;;5004151;28;20106;-70
2023/07/28 00:53:23;;;;;;;34.95;7.60;;;;;;;;;;4972086;28;20435;-69
2023/07/28 00:55:49;;;;;;;42.28;7.43;;;;;;;;;;4976228;28;20072;-70
2023/07/28 00:58:14;;;;;;;28.00;8.00;;;;;;;;;;4972848;28;20070;-71
2023/07/28 01:00:39;;;;;;;29.95;7.43;;;;;;;;;;4972629;28;20050;-71
2023/07/28 01:03:05;;;;;;;31.15;7.72;;;;;;;;;;4976163;28;20050;-71
2023/07/28 01:05:48;;;;;;;31.20;6.85;;;;;;;;;;4973343;28;20041;-71
2023/07/28 01:08:34;;;;;;;30.75;7.40;;;;;;;;;;4971779;28;20047;-71
2023/07/28 01:10:59;;;;;;;30.90;7.10;;;;;;;;;;4972406;28;20662;-70
2023/07/28 01:13:25;;;;;;;50.88;7.88;;;;;;;;;;4974202;28;20074;-71
2023/07/28 01:15:50;;;;;;;35.13;7.20;;;;;;;;;;4973438;28;20440;-70
2023/07/28 01:18:16;;;;;;;27.08;6.55;;;;;;;;;;4976727;28;20372;-70
2023/07/28 01:20:43;;;;;;;31.80;7.40;;;;;;;;;;4971756;28;20117;-71
2023/07/28 01:23:37;;;;;;;32.50;7.10;;;;;;;;;;4972175;28;20061;-70
2023/07/28 01:26:10;;;;;;;30.23;6.75;;;;;;;;;;4976257;28;20121;-70
2023/07/28 01:28:36;;;;;;;25.45;6.43;;;;;;;;;;4972719;28;20045;-71
2023/07/28 01:31:03;;;;;;;26.02;7.10;;;;;;;;;;4971837;28;20042;-71
2023/07/28 01:33:29;;;;;;;28.88;7.32;;;;;;;;;;4972017;28;20387;-71
2023/07/28 01:35:55;;;;;;;30.70;7.38;;;;;;;;;;4971796;28;20039;-70
2023/07/28 01:38:20;;;;;;;37.03;7.57;;;;;;;;;;4976077;28;20463;-70
2023/07/28 01:40:46;;;;;;;36.05;7.50;;;;;;;;;;4972421;28;20035;-70
2023/07/28 01:43:11;;;;;;;32.00;6.82;;;;;;;;;;4976549;28;20039;-70
2023/07/28 01:45:36;;;;;;;29.00;6.63;;;;;;;;;;4975884;28;20042;-70
2023/07/28 01:48:02;;;;;;;26.60;6.45;;;;;;;;;;4976671;28;20041;-70
2023/07/28 01:50:27;;;;;;;27.50;7.30;;;;;;;;;;4977981;28;20066;-71
2023/07/28 01:52:52;;;;;;;30.58;6.95;;;;;;;;;;4977088;28;20476;-71
2023/07/28 01:55:18;;;;;;;23.50;5.97;;;;;;;;;;4976652;28;20035;-69
2023/07/28 01:57:59;;;;;;;28.15;6.43;;;;;;;;;;4976506;28;20030;-69
2023/07/28 02:00:25;;;;;;;29.50;6.65;;;;;;;;;;4975997;28;20102;-70
2023/07/28 02:02:51;;;;;;;22.83;5.68;;;;;;;;;;4978843;28;20109;-70
2023/07/28 02:05:17;;;;;;;24.75;6.80;;;;;;;;;;4974784;28;20125;-71
2023/07/28 02:07:42;;;;;;;24.65;6.05;;;;;;;;;;4974901;28;20543;-70
2023/07/28 02:10:08;;;;;;;28.20;6.03;;;;;;;;;;4975938;28;20031;-70
2023/07/28 02:12:33;;;;;;;36.33;6.28;;;;;;;;;;4974575;28;20073;-70
2023/07/28 02:14:59;;;;;;;22.80;6.45;;;;;;;;;;4977072;28;20125;-70
2023/07/28 02:17:25;;;;;;;24.58;5.93;;;;;;;;;;4975816;28;20038;-71
2023/07/28 02:19:50;;;;;;;27.88;6.55;;;;;;;;;;4975405;28;20046;-71
2023/07/28 02:22:16;;;;;;;39.08;6.53;;;;;;;;;;4975890;28;20039;-71
2023/07/28 02:24:41;;;;;;;40.95;7.03;;;;;;;;;;4975591;28;20043;-70
2023/07/28 02:27:06;;;;;;;21.30;5.63;;;;;;;;;;4976090;28;20041;-68
2023/07/28 02:29:32;;;;;;;27.05;6.05;;;;;;;;;;4975319;28;20069;-70
2023/07/28 02:31:57;;;;;;;29.65;6.82;;;;;;;;;;4975583;28;20046;-70
2023/07/28 02:34:22;;;;;;;34.25;6.93;;;;;;;;;;4974051;28;20043;-70
2023/07/28 02:36:48;;;;;;;39.40;8.25;;;;;;;;;;4975770;28;20093;-70
2023/07/28 02:39:13;;;;;;;29.85;7.13;;;;;;;;;;4975250;28;20027;-70
2023/07/28 02:41:38;;;;;;;33.28;7.95;;;;;;;;;;4975972;28;20045;-70
2023/07/28 02:44:04;;;;;;;34.20;7.80;;;;;;;;;;4974964;28;20451;-71
2023/07/28 02:46:29;;;;;;;33.30;7.32;;;;;;;;;;4975336;28;20035;-70
2023/07/28 02:48:54;;;;;;;31.95;7.55;;;;;;;;;;4975198;28;20038;-70
2023/07/28 02:51:20;;;;;;;32.55;6.95;;;;;;;;;;4978245;28;20034;-70
2023/07/28 02:53:45;;;;;;;33.70;7.43;;;;;;;;;;4975691;28;20043;-70
2023/07/28 02:56:10;;;;;;;34.17;7.25;;;;;;;;;;4975506;28;20081;-70
2023/07/28 02:58:36;;;;;;;30.08;7.20;;;;;;;;;;4976075;28;20047;-70
2023/07/28 03:01:01;;;;;;;27.75;6.95;;;;;;;;;;4974058;28;20494;-70
2023/07/28 03:03:27;;;;;;;31.33;7.32;;;;;;;;;;4972211;28;20087;-70
2023/07/28 03:05:53;;;;;;;30.83;7.00;;;;;;;;;;4974741;28;20042;-69
2023/07/28 03:08:19;;;;;;;40.88;7.28;;;;;;;;;;4974502;28;20419;-70
2023/07/28 03:10:45;;;;;;;32.67;6.93;;;;;;;;;;4973973;28;20051;-69
2023/07/28 03:13:10;;;;;;;28.20;6.10;;;;;;;;;;4972753;28;20093;-70
2023/07/28 03:15:35;;;;;;;26.15;6.50;;;;;;;;;;4975491;28;20110;-70
2023/07/28 03:18:01;;;;;;;26.55;6.35;;;;;;;;;;4976841;28;20062;-70
2023/07/28 03:20:26;;;;;;;22.08;6.40;;;;;;;;;;4973943;28;20046;-70
2023/07/28 03:22:51;;;;;;;24.13;6.15;;;;;;;;;;4974424;28;20039;-70
2023/07/28 03:25:17;;;;;;;25.15;6.45;;;;;;;;;;4974611;28;20165;-70
2023/07/28 03:27:42;;;;;;;21.17;6.05;;;;;;;;;;4978029;28;20058;-70
2023/07/28 03:30:10;;;;;;;29.08;6.65;;;;;;;;;;4978354;28;20030;-70
2023/07/28 03:32:36;;;;;;;23.55;6.13;;;;;;;;;;4974964;28;20129;-70
2023/07/28 03:35:01;;;;;;;19.50;5.97;;;;;;;;;;4973335;28;20122;-69
2023/07/28 03:37:27;;;;;;;25.45;6.65;;;;;;;;;;4973607;28;20423;-70
2023/07/28 03:39:52;;;;;;;26.98;6.35;;;;;;;;;;4975524;28;20430;-70
2023/07/28 03:42:17;;;;;;;25.40;6.30;;;;;;;;;;4974553;28;20058;-71
2023/07/28 03:44:43;;;;;;;21.08;5.65;;;;;;;;;;4974180;28;20053;-70
2023/07/28 03:47:08;;;;;;;18.98;5.53;;;;;;;;;;4974673;28;20113;-70
2023/07/28 03:49:34;;;;;;;24.23;6.07;;;;;;;;;;4974196;28;20034;-71
2023/07/28 03:51:59;;;;;;;24.50;5.45;;;;;;;;;;4979283;28;20054;-69
2023/07/28 03:54:25;;;;;;;23.40;5.72;;;;;;;;;;4975687;28;20121;-70
2023/07/28 03:56:50;;;;;;;20.92;5.60;;;;;;;;;;4974603;28;20050;-70
2023/07/28 03:59:16;;;;;;;23.77;5.60;;;;;;;;;;4973968;28;20026;-70
2023/07/28 04:01:41;;;;;;;26.83;6.28;;;;;;;;;;4973310;28;20054;-70
2023/07/28 04:04:07;;;;;;;26.73;5.85;;;;;;;;;;4973962;28;20043;-70
2023/07/28 04:06:53;;;;;;;26.75;5.78;;;;;;;;;;4974468;28;20049;-71
2023/07/28 04:09:19;;;;;;;16.25;5.45;;;;;;;;;;4961581;28;20041;-70
2023/07/28 04:11:44;;;;;;;30.00;6.00;;;;;;;;;;4978200;28;20038;-70
2023/07/28 04:14:09;;;;;;;21.52;5.18;;;;;;;;;;4973943;28;20042;-71
2023/07/28 04:16:35;;;;;;;25.10;5.57;;;;;;;;;;4973795;28;20042;-70
2023/07/28 04:19:00;;;;;;;21.90;5.72;;;;;;;;;;4973905;28;20459;-71
2023/07/28 04:21:25;;;;;;;22.95;5.13;;;;;;;;;;4973628;28;20046;-70
2023/07/28 04:23:51;;;;;;;18.00;5.03;;;;;;;;;;5004981;28;20555;-70
2023/07/28 04:26:17;;;;;;;19.13;5.72;;;;;;;;;;4971669;28;20027;-70
2023/07/28 04:28:42;;;;;;;17.73;5.50;;;;;;;;;;4973436;28;20038;-69
2023/07/28 04:31:08;;;;;;;21.63;5.53;;;;;;;;;;4973329;28;20066;-70
2023/07/28 04:33:33;;;;;;;21.85;5.25;;;;;;;;;;4972556;28;20494;-71
2023/07/28 04:36:00;;;;;;;21.00;5.43;;;;;;;;;;4974788;28;20110;-69
2023/07/28 04:38:26;;;;;;;23.38;5.80;;;;;;;;;;4972294;28;20088;-70
2023/07/28 04:40:51;;;;;;;24.27;5.53;;;;;;;;;;4973440;28;20042;-70
2023/07/28 04:43:16;;;;;;;19.08;5.10;;;;;;;;;;4973860;28;20122;-70
2023/07/28 04:45:42;;;;;;;23.83;5.78;;;;;;;;;;4973252;28;20495;-70
2023/07/28 04:48:07;;;;;;;15.30;4.72;;;;;;;;;;4972994;28;20459;-70
2023/07/28 04:50:33;;;;;;;20.23;5.68;;;;;;;;;;4973310;28;20057;-70
2023/07/28 04:52:59;;;;;;;17.75;6.22;;;;;;;;;;4972223;28;20066;-70
2023/07/28 04:55:26;;;;;;;20.23;5.45;;;;;;;;;;4973249;28;20930;-71
2023/07/28 04:57:52;;;;;;;20.60;4.88;;;;;;;;;;4973195;28;20403;-70
2023/07/28 05:00:17;;;;;;;23.95;5.55;;;;;;;;;;4974571;28;20054;-70
2023/07/28 05:02:42;;;;;;;16.65;5.18;;;;;;;;;;4973399;28;20117;-70
2023/07/28 05:05:08;;;;;;;22.67;4.85;;;;;;;;;;4972133;28;20038;-70
2023/07/28 05:07:33;;;;;;;23.52;5.80;;;;;;;;;;4973444;28;20383;-70
2023/07/28 05:09:58;;;;;;;16.33;4.70;;;;;;;;;;4971778;28;20045;-70
2023/07/28 05:12:24;;;;;;;15.25;4.90;;;;;;;;;;4975930;28;20113;-70
2023/07/28 05:14:49;;;;;;;18.80;5.05;;;;;;;;;;4975287;28;20117;-70
2023/07/28 05:17:14;;;;;;;17.45;4.85;;;;;;;;;;4976267;28;20088;-70
2023/07/28 05:19:40;;;;;;;14.57;4.65;;;;;;;;;;4976578;28;20035;-70
2023/07/28 05:22:06;;;;;;;12.00;3.80;;;;;;;;;;4975659;28;20050;-70
2023/07/28 05:24:32;;;;;;;12.05;4.00;;;;;;;;;;4987047;28;20089;-70
2023/07/28 05:26:58;;;;;;;10.85;3.92;;;;;;;;;;4978014;28;20030;-70
2023/07/28 05:29:23;;;;;;;11.75;3.47;;;;;;;;;;4975664;28;20045;-71
2023/07/28 05:31:48;;;;;;;16.50;4.25;;;;;;;;;;4976864;28;20038;-70
2023/07/28 05:34:14;;;;;;;6.90;3.33;;;;;;;;;;4974035;28;20113;-71
2023/07/28 05:36:40;;;;;;;8.00;3.45;;;;;;;;;;4976847;28;20070;-70
2023/07/28 05:39:05;;;;;;;6.63;2.78;;;;;;;;;;4976986;28;20040;-70
2023/07/28 05:41:30;;;;;;;7.63;2.90;;;;;;;;;;4977001;28;20074;-70
2023/07/28 05:43:56;;;;;;;6.85;3.10;;;;;;;;;;4975796;28;20043;-70
2023/07/28 05:46:21;;;;;;;6.80;2.30;;;;;;;;;;4975462;28;20076;-70
2023/07/28 05:48:46;;;;;;;3.45;2.20;;;;;;;;;;4976788;28;20053;-71
2023/07/28 05:51:12;;;;;;;2.70;1.50;;;;;;;;;;4976578;28;20038;-71
2023/07/28 05:53:37;;;;;;;3.95;1.40;;;;;;;;;;4982838;28;20069;-72
2023/07/28 05:56:03;;;;;;;2.08;1.23;;;;;;;;;;4976628;28;20045;-68
2023/07/28 05:58:28;;;;;;;3.13;1.35;;;;;;;;;;4974954;28;20039;-69
2023/07/28 06:00:54;;;;;;;3.08;1.40;;;;;;;;;;4977117;28;20051;-71
2023/07/28 06:03:19;;;;;;;2.00;1.00;;;;;;;;;;4968200;28;20035;-71
2023/07/28 06:05:44;;;;;;;2.78;1.00;;;;;;;;;;4976010;28;20043;-71
2023/07/28 06:08:10;;;;;;;1.85;0.90;;;;;;;;;;4976432;28;20038;-71
2023/07/28 06:10:35;;;;;;;5.00;1.13;;;;;;;;;;4975445;28;20419;-71
2023/07/28 06:13:00;;;;;;;2.47;1.00;;;;;;;;;;4981148;28;20578;-69
2023/07/28 06:15:26;;;;;;;2.63;1.00;;;;;;;;;;4975797;28;20407;-71
2023/07/28 06:17:52;;;;;;;3.47;1.08;;;;;;;;;;4977547;28;20117;-69
2023/07/28 06:20:17;;;;;;;3.03;1.15;;;;;;;;;;4975571;28;20399;-69
2023/07/28 06:22:43;;;;;;;1.73;1.02;;;;;;;;;;4973968;28;20030;-69
2023/07/28 06:25:08;;;;;;;1.95;1.00;;;;;;;;;;4974240;28;20062;-68
2023/07/28 06:27:33;;;;;;;3.70;1.33;;;;;;;;;;4977612;28;20045;-69
2023/07/28 06:29:59;;;;;;;1.80;0.98;;;;;;;;;;4975682;28;20117;-68
2023/07/28 06:32:24;;;;;;;2.85;1.15;;;;;;;;;;4975178;28;20046;-69
2023/07/28 06:34:50;;;;;;;2.15;1.00;;;;;;;;;;4974566;28;20043;-69
2023/07/28 06:37:15;;;;;;;3.33;1.20;;;;;;;;;;4971566;28;20043;-69
2023/07/28 06:39:41;;;;;;;3.28;1.08;;;;;;;;;;4976227;28;20494;-69
2023/07/28 06:42:07;;;;;;;2.70;1.20;;;;;;;;;;4981242;28;20039;-69
2023/07/28 06:44:32;;;;;;;3.90;1.20;;;;;;;;;;4973498;28;20030;-69
2023/07/28 06:46:58;;;;;;;2.58;1.20;;;;;;;;;;4977723;28;20038;-68
2023/07/28 06:49:23;;;;;;;4.72;1.25;;;;;;;;;;4979215;28;20392;-69
2023/07/28 06:51:49;;;;;;;3.65;1.13;;;;;;;;;;4972817;28;20467;-69
2023/07/28 06:54:14;;;;;;;1.92;0.80;;;;;;;;;;4974676;28;20450;-69
2023/07/28 06:56:40;;;;;;;1.92;0.90;;;;;;;;;;4975014;28;20045;-69
2023/07/28 06:59:06;;;;;;;1.98;0.85;;;;;;;;;;4974757;28;20080;-72
2023/07/28 07:01:32;;;;;;;1.92;1.13;;;;;;;;;;4975536;28;20050;-71
2023/07/28 07:03:57;;;;;;;3.38;0.93;;;;;;;;;;4976696;28;20038;-71
2023/07/28 07:06:23;;;;;;;2.22;1.00;;;;;;;;;;4975168;28;20410;-71
2023/07/28 07:08:48;;;;;;;2.17;0.77;;;;;;;;;;4975641;28;20067;-71
2023/07/28 07:11:13;;;;;;;1.98;0.90;;;;;;;;;;4981759;28;20034;-71
2023/07/28 07:13:39;;;;;;;1.90;0.88;;;;;;;;;;4974523;28;20038;-71
2023/07/28 07:16:06;;;;;;;3.00;0.90;;;;;;;;;;4977301;28;20035;-71
2023/07/28 07:18:31;;;;;;;1.73;0.90;;;;;;;;;;4974836;28;20056;-71
2023/07/28 07:21:02;;;;;;;1.98;0.88;;;;;;;;;;4981373;28;20042;-70
2023/07/28 07:23:27;;;;;;;4.88;0.95;;;;;;;;;;4964359;28;20182;-71
2023/07/28 07:25:52;;;;;;;3.42;1.00;;;;;;;;;;4980418;28;20086;-70
2023/07/28 07:28:18;;;;;;;2.67;1.10;;;;;;;;;;4969972;28;20038;-71
2023/07/28 07:30:43;;;;;;;1.30;0.73;;;;;;;;;;4974708;28;20478;-70
2023/07/28 07:33:12;;;;;;;2.38;1.05;;;;;;;;;;4972530;28;20043;-71
2023/07/28 07:35:39;;;;;;;1.83;1.00;;;;;;;;;;4973543;28;20026;-69
2023/07/28 07:38:09;;;;;;;2.50;0.90;;;;;;;;;;4976973;28;20030;-69
2023/07/28 07:40:36;;;;;;;2.03;0.88;;;;;;;;;;4969331;28;20069;-69
2023/07/28 07:43:03;;;;;;;2.55;1.30;;;;;;;;;;4965541;28;20403;-70
2023/07/28 07:45:32;;;;;;;1.92;0.93;;;;;;;;;;4970962;28;20039;-70
2023/07/28 07:48:04;;;;;;;3.45;1.08;;;;;;;;;;4969214;28;20557;-70
2023/07/28 07:50:33;;;;;;;3.60;1.20;;;;;;;;;;4973637;28;20027;-70
2023/07/28 07:52:59;;;;;;;2.88;1.33;;;;;;;;;;4973210;28;20370;-70
2023/07/28 07:55:24;;;;;;;2.70;1.30;;;;;;;;;;4966055;28;20074;-71
2023/07/28 07:57:49;;;;;;;4.00;1.48;;;;;;;;;;4975018;28;20034;-70
2023/07/28 08:00:15;;;;;;;2.72;1.50;;;;;;;;;;4982867;28;20056;-69
2023/07/28 08:02:40;;;;;;;3.08;1.50;;;;;;;;;;4982373;28;20038;-70
2023/07/28 08:05:07;;;;;;;3.53;1.55;;;;;;;;;;4971804;28;20451;-70
2023/07/28 08:07:32;;;;;;;3.17;1.60;;;;;;;;;;4979357;28;20042;-69
2023/07/28 08:09:58;;;;;;;4.38;1.60;;;;;;;;;;4976985;28;20049;-69
2023/07/28 08:12:24;;;;;;;2.20;1.42;;;;;;;;;;4974853;28;20461;-69
2023/07/28 08:14:49;;;;;;;3.92;1.65;;;;;;;;;;4976126;28;20042;-69
2023/07/28 08:17:15;;;;;;;2.85;1.50;;;;;;;;;;4973474;28;20039;-70
2023/07/28 08:19:40;;;;;;;4.28;1.38;;;;;;;;;;4973214;28;20039;-70
2023/07/28 08:22:05;;;;;;;4.60;1.90;;;;;;;;;;4975286;28;20038;-70
2023/07/28 08:24:31;;;;;;;4.15;1.75;;;;;;;;;;4979908;28;20129;-71
2023/07/28 08:26:57;;;;;;;6.75;1.80;;;;;;;;;;4974702;28;20038;-70
2023/07/28 08:29:22;;;;;;;4.05;1.50;;;;;;;;;;4975245;28;20042;-69
2023/07/28 08:31:47;;;;;;;2.70;1.50;;;;;;;;;;4983429;28;20153;-70
2023/07/28 08:34:13;;;;;;;6.65;1.88;;;;;;;;;;4980023;28;20399;-70
2023/07/28 08:36:38;;;;;;;2.78;1.27;;;;;;;;;;4975777;28;20398;-70
2023/07/28 08:39:05;;;;;;;2.72;1.17;;;;;;;;;;4974824;28;20130;-70
2023/07/28 08:41:30;;;;;;;2.60;1.30;;;;;;;;;;4973650;28;20038;-70
2023/07/28 08:43:56;;;;;;;3.13;1.50;;;;;;;;;;5003940;28;20042;-70
2023/07/28 08:46:21;;;;;;;2.75;1.38;;;;;;;;;;5003792;28;20045;-70
2023/07/28 08:48:46;;;;;;;3.47;1.40;;;;;;;;;;5004442;28;20046;-70
2023/07/28 08:51:13;;;;;;;2.88;1.48;;;;;;;;;;4975735;28;20097;-70
2023/07/28 08:53:39;;;;;;;2.15;1.35;;;;;;;;;;4980335;28;20046;-70
2023/07/28 08:56:05;;;;;;;3.70;1.70;;;;;;;;;;4976601;28;20027;-70
2023/07/28 08:58:30;;;;;;;3.10;1.25;;;;;;;;;;4976786;28;20534;-69
2023/07/28 09:01:00;;;;;;;2.63;1.48;;;;;;;;;;4978869;28;20178;-70
2023/07/28 09:03:27;;;;;;;2.70;1.42;;;;;;;;;;4979235;28;20050;-69
2023/07/28 09:05:58;;;;;;;2.10;1.20;;;;;;;;;;4982095;28;20066;-69
2023/07/28 09:08:24;;;;;;;2.33;1.20;;;;;;;;;;4977657;28;20857;-70
2023/07/28 09:10:49;;;;;;;2.67;1.40;;;;;;;;;;4978732;28;20100;-70
2023/07/28 09:13:17;;;;;;;2.60;1.30;;;;;;;;;;4966170;28;20085;-70
2023/07/28 09:15:43;;;;;;;2.75;1.45;;;;;;;;;;4977735;28;20042;-69
2023/07/28 09:18:10;;;;;;;3.35;1.48;;;;;;;;;;4973816;28;20035;-70
2023/07/28 09:20:37;;;;;;;3.17;1.50;;;;;;;;;;4978159;28;20039;-69
2023/07/28 09:23:03;;;;;;;2.83;1.48;;;;;;;;;;4972622;28;20523;-69
2023/07/28 09:25:29;;;;;;;2.22;1.30;;;;;;;;;;4976689;28;20118;-70
2023/07/28 09:27:55;;;;;;;3.22;1.75;;;;;;;;;;4977021;28;20061;-69
2023/07/28 09:30:21;;;;;;;5.10;2.00;;;;;;;;;;4980771;28;20114;-69
2023/07/28 09:32:51;;;;;;;3.65;2.05;;;;;;;;;;4986802;28;20372;-69
2023/07/28 09:35:17;;;;;;;2.80;1.80;;;;;;;;;;4975366;28;20105;-69
2023/07/28 09:37:48;;;;;;;4.57;2.03;;;;;;;;;;4976287;28;20041;-69
2023/07/28 09:40:17;;;;;;;7.18;2.67;;;;;;;;;;4981428;28;20042;-69
2023/07/28 09:42:50;;;;;;;6.78;2.05;;;;;;;;;;4980238;28;20034;-70
2023/07/28 09:45:17;;;;;;;3.15;1.70;;;;;;;;;;4966097;28;20116;-70
2023/07/28 09:47:46;;;;;;;4.20;1.85;;;;;;;;;;4975657;28;20515;-69
2023/07/28 09:50:15;;;;;;;6.65;1.92;;;;;;;;;;5006523;28;20057;-69
2023/07/28 09:52:46;;;;;;;4.43;1.92;;;;;;;;;;4976778;28;20490;-70
2023/07/28 09:55:16;;;;;;;3.90;1.70;;;;;;;;;;4974832;28;20062;-69
2023/07/28 09:57:53;;;;;;;6.25;1.77;;;;;;;;;;4975726;28;20475;-69
2023/07/28 10:00:19;;;;;;;10.73;2.72;;;;;;;;;;4969988;28;20518;-69
2023/07/28 10:02:46;;;;;;;4.70;1.88;;;;;;;;;;4972483;28;20058;-69
2023/07/28 10:05:11;;;;;;;3.35;1.67;;;;;;;;;;4976885;28;20050;-69
2023/07/28 10:07:40;;;;;;;6.30;2.33;;;;;;;;;;4975095;28;20043;-69
2023/07/28 10:10:08;;;;;;;3.53;1.63;;;;;;;;;;4977947;28;20519;-69
2023/07/28 10:12:46;;;;;;;2.92;1.50;;;;;;;;;;4979622;28;20561;-69
2023/07/28 10:15:15;;;;;;;3.97;1.50;;;;;;;;;;4982030;28;20034;-69
2023/07/28 10:17:44;;;;;;;5.15;1.77;;;;;;;;;;4979997;28;20554;-69
2023/07/28 10:20:35;;;;;;;3.90;1.38;;;;;;;;;;4975939;28;20033;-69
2023/07/28 10:23:03;;;;;;;2.08;1.08;;;;;;;;;;4973727;28;20561;-69
2023/07/28 10:25:32;;;;;;;1.55;0.88;;;;;;;;;;4975424;28;20088;-69
2023/07/28 10:27:58;;;;;;;2.67;1.10;;;;;;;;;;4977127;28;20425;-69
2023/07/28 10:30:24;;;;;;;3.58;1.15;;;;;;;;;;4981131;28;20041;-69
2023/07/28 10:32:52;;;;;;;3.70;1.30;;;;;;;;;;4970287;28;20043;-69
2023/07/28 10:35:18;;;;;;;1.70;1.00;;;;;;;;;;4977923;28;20058;-69
2023/07/28 10:37:45;;;;;;;4.30;1.30;;;;;;;;;;4975687;28;20751;-69
2023/07/28 10:40:35;;;;;;;3.00;1.00;;;;;;;;;;4979398;28;20126;-69
2023/07/28 10:43:01;;;;;;;3.70;1.20;;;;;;;;;;4975037;28;20043;-70
2023/07/28 10:45:28;;;;;;;4.07;1.15;;;;;;;;;;4957629;28;20069;-69
2023/07/28 10:47:59;;;;;;;3.97;1.10;;;;;;;;;;4975939;28;20034;-70
2023/07/28 10:50:27;;;;;;;7.38;1.95;;;;;;;;;;4973511;28;20053;-70
2023/07/28 10:52:52;;;;;;;3.08;0.90;;;;;;;;;;4974775;28;20434;-69
2023/07/28 10:55:22;;;;;;;2.83;1.10;;;;;;;;;;4976971;28;20151;-69
2023/07/28 10:57:50;;;;;;;4.28;1.23;;;;;;;;;;4976259;28;20049;-70
2023/07/28 11:00:17;;;;;;;8.18;1.10;;;;;;;;;;4972351;28;20139;-69
2023/07/28 11:02:44;;;;;;;6.45;1.33;;;;;;;;;;4972090;28;20122;-69
2023/07/28 11:05:18;;;;;;;6.25;1.20;;;;;;;;;;4973522;28;20096;-69
2023/07/28 11:07:43;;;;;;;2.65;1.02;;;;;;;;;;4975545;28;20090;-69
2023/07/28 11:10:13;;;;;;;3.78;0.90;;;;;;;;;;5001290;28;20067;-69
2023/07/28 11:12:46;;;;;;;2.75;1.05;;;;;;;;;;4973251;28;20053;-69
2023/07/28 11:15:13;;;;;;;3.00;1.17;;;;;;;;;;4972989;28;20498;-69
2023/07/28 11:17:39;;;;;;;2.33;1.00;;;;;;;;;;4972937;28;20096;-69
2023/07/28 11:20:15;;;;;;;5.25;1.42;;;;;;;;;;4974134;28;20045;-69
2023/07/28 11:22:40;;;;;;;5.28;1.40;;;;;;;;;;4974244;28;20152;-69
2023/07/28 11:25:09;;;;;;;5.65;1.15;;;;;;;;;;4973662;28;20859;-69
2023/07/28 11:27:35;;;;;;;4.38;1.30;;;;;;;;;;4973469;28;20440;-70
2023/07/28 11:30:01;;;;;;;5.20;1.92;;;;;;;;;;4973593;28;20034;-69
2023/07/28 11:32:26;;;;;;;4.25;1.65;;;;;;;;;;4975282;28;20042;-69
2023/07/28 11:34:51;;;;;;;3.35;1.23;;;;;;;;;;4973943;28;20059;-70
2023/07/28 11:37:18;;;;;;;3.53;1.15;;;;;;;;;;4978870;28;20506;-69
2023/07/28 11:39:43;;;;;;;4.40;1.52;;;;;;;;;;4972919;28;20047;-69
2023/07/28 11:42:09;;;;;;;3.00;1.20;;;;;;;;;;4976307;28;20086;-70
2023/07/28 11:44:35;;;;;;;2.75;1.10;;;;;;;;;;5003790;28;20046;-70
2023/07/28 11:47:04;;;;;;;5.80;2.03;;;;;;;;;;4972588;28;20483;-69
2023/07/28 11:49:30;;;;;;;2.20;1.02;;;;;;;;;;4979454;28;20521;-69
2023/07/28 11:51:58;;;;;;;3.60;1.10;;;;;;;;;;4974962;28;20046;-69
2023/07/28 11:54:25;;;;;;;1.88;0.90;;;;;;;;;;4964293;28;20043;-70
2023/07/28 11:56:53;;;;;;;2.72;0.80;;;;;;;;;;4973304;28;20041;-70
2023/07/28 11:59:19;;;;;;;2.08;0.80;;;;;;;;;;4971883;28;20034;-69
2023/07/28 12:01:55;;;;;;;1.48;0.73;;;;;;;;;;4976589;28;20510;-70
2023/07/28 12:04:25;;;;;;;1.73;0.70;;;;;;;;;;4972850;28;20041;-69
2023/07/28 12:07:11;;;;;;;1.35;0.80;;;;;;;;;;4974802;28;20034;-69
2023/07/28 12:09:46;;;;;;;2.72;0.80;;;;;;;;;;4965700;28;20035;-69
2023/07/28 12:12:15;;;;;;;1.92;0.90;;;;;;;;;;4973415;28;20053;-69
2023/07/28 12:14:40;;;;;;;2.40;0.85;;;;;;;;;;4971314;28;20042;-69
2023/07/28 12:17:15;;;;;;;1.95;0.82;;;;;;;;;;4973734;28;20501;-69
2023/07/28 12:20:02;;;;;;;3.28;1.05;;;;;;;;;;4972328;28;20046;-69
2023/07/28 12:22:27;;;;;;;1.63;0.85;;;;;;;;;;4970991;28;20046;-69
2023/07/28 12:24:55;;;;;;;3.97;1.00;;;;;;;;;;4966813;28;20053;-69
2023/07/28 12:27:23;;;;;;;1.90;0.90;;;;;;;;;;4966253;28;20109;-68
2023/07/28 12:29:49;;;;;;;3.08;0.90;;;;;;;;;;4969532;28;20043;-70
2023/07/28 12:32:15;;;;;;;4.22;1.20;;;;;;;;;;4976019;28;20534;-69
2023/07/28 12:34:40;;;;;;;1.88;0.80;;;;;;;;;;4973516;28;20030;-70
2023/07/28 12:37:06;;;;;;;2.25;0.90;;;;;;;;;;4975793;28;20039;-69
2023/07/28 12:39:31;;;;;;;2.67;1.10;;;;;;;;;;4962443;28;20051;-70
2023/07/28 12:41:57;;;;;;;3.25;1.00;;;;;;;;;;4953679;28;20153;-69
2023/07/28 12:44:22;;;;;;;3.03;1.17;;;;;;;;;;4972095;28;20044;-70
2023/07/28 12:46:47;;;;;;;2.92;1.00;;;;;;;;;;4969702;28;20043;-69
2023/07/28 12:49:14;;;;;;;1.30;0.80;;;;;;;;;;4973433;28;20043;-70
2023/07/28 12:51:40;;;;;;;2.05;0.90;;;;;;;;;;4964151;28;20046;-70
2023/07/28 12:54:05;;;;;;;1.67;0.80;;;;;;;;;;4969910;28;20121;-69
2023/07/28 12:56:32;;;;;;;3.17;1.10;;;;;;;;;;4967365;28;20031;-69
2023/07/28 12:58:58;;;;;;;2.53;0.95;;;;;;;;;;4968010;28;20739;-70
2023/07/28 13:01:26;;;;;;;2.00;0.90;;;;;;;;;;4969224;28;20054;-69
2023/07/28 13:03:53;;;;;;;2.13;0.70;;;;;;;;;;4974007;28;20031;-69
2023/07/28 13:06:19;;;;;;;2.03;0.70;;;;;;;;;;4979088;28;20171;-70
2023/07/28 13:08:44;;;;;;;1.38;0.80;;;;;;;;;;4970973;28;20077;-69
2023/07/28 13:11:10;;;;;;;1.63;0.85;;;;;;;;;;4971859;28;20459;-69
2023/07/28 13:13:35;;;;;;;2.03;0.70;;;;;;;;;;4971917;28;20118;-70
2023/07/28 13:16:00;;;;;;;1.45;0.75;;;;;;;;;;4972539;28;20479;-69
2023/07/28 13:18:26;;;;;;;2.20;1.20;;;;;;;;;;4973083;28;20039;-69
2023/07/28 13:20:51;;;;;;;2.63;1.08;;;;;;;;;;4962051;28;20030;-69
2023/07/28 13:23:17;;;;;;;1.85;0.90;;;;;;;;;;4969200;28;20035;-70
2023/07/28 13:25:42;;;;;;;3.08;1.20;;;;;;;;;;4971625;28;20105;-69
2023/07/28 13:28:07;;;;;;;3.72;1.20;;;;;;;;;;4969511;28;21135;-69
2023/07/28 13:30:33;;;;;;;3.25;1.08;;;;;;;;;;4968893;28;20043;-70
2023/07/28 13:32:58;;;;;;;1.92;1.08;;;;;;;;;;4970295;28;20533;-70
2023/07/28 13:35:24;;;;;;;3.25;1.30;;;;;;;;;;4970500;28;20496;-70
2023/07/28 13:37:50;;;;;;;3.17;1.35;;;;;;;;;;4973659;28;20165;-69
2023/07/28 13:40:15;;;;;;;3.25;1.20;;;;;;;;;;4978431;28;20126;-69
2023/07/28 13:42:40;;;;;;;3.75;1.02;;;;;;;;;;4979884;28;20063;-69
2023/07/28 13:45:06;;;;;;;4.18;1.13;;;;;;;;;;4977498;28;20121;-69
2023/07/28 13:47:32;;;;;;;1.60;0.90;;;;;;;;;;4975927;28;20066;-70
2023/07/28 13:49:57;;;;;;;2.15;1.20;;;;;;;;;;4974755;28;20047;-69
2023/07/28 13:52:22;;;;;;;3.58;1.10;;;;;;;;;;4976802;28;20045;-69
2023/07/28 13:54:48;;;;;;;4.70;1.40;;;;;;;;;;4971256;28;20045;-69
2023/07/28 13:57:14;;;;;;;2.33;0.95;;;;;;;;;;5002657;28;20038;-70
2023/07/28 13:59:39;;;;;;;3.10;1.02;;;;;;;;;;4976000;28;20491;-70
2023/07/28 14:02:05;;;;;;;3.53;0.98;;;;;;;;;;4981976;28;20031;-69
2023/07/28 14:04:30;;;;;;;1.83;0.77;;;;;;;;;;4978395;28;20035;-69
2023/07/28 14:06:56;;;;;;;1.65;0.90;;;;;;;;;;4972014;28;20055;-70
2023/07/28 14:09:21;;;;;;;1.73;0.93;;;;;;;;;;4974614;28;20452;-69
2023/07/28 14:11:46;;;;;;;2.75;0.90;;;;;;;;;;4971630;28;20497;-69
2023/07/28 14:14:12;;;;;;;1.58;0.80;;;;;;;;;;4976190;28;20050;-70
2023/07/28 14:16:37;;;;;;;1.40;0.80;;;;;;;;;;4981004;28;20474;-69
2023/07/28 14:19:03;;;;;;;1.73;0.90;;;;;;;;;;4977083;28;20379;-69
2023/07/28 14:21:28;;;;;;;3.20;0.80;;;;;;;;;;4980113;28;20035;-69
2023/07/28 14:23:54;;;;;;;7.80;1.00;;;;;;;;;;4971431;28;20069;-69
2023/07/28 14:26:19;;;;;;;1.38;0.70;;;;;;;;;;4970337;28;20277;-69
2023/07/28 14:28:45;;;;;;;2.35;0.90;;;;;;;;;;4970334;28;20443;-69
2023/07/28 14:31:10;;;;;;;2.00;0.88;;;;;;;;;;4975124;28;20116;-69
2023/07/28 14:33:35;;;;;;;3.55;0.93;;;;;;;;;;4974926;28;20068;-70
2023/07/28 14:36:01;;;;;;;1.73;0.80;;;;;;;;;;4971653;28;20502;-69